createdAt,value
2019-06-15T00:00:35.203Z,9.50
2019-06-15T00:03:05.055Z,9.17
2019-06-15T00:05:34.927Z,9.00
2019-06-15T00:08:05.124Z,8.87
2019-06-15T00:10:35.136Z,8.97
2019-06-15T00:13:05.018Z,9.60
2019-06-15T00:15:34.837Z,9.87
2019-06-15T00:18:04.794Z,9.40
2019-06-15T00:20:34.607Z,9.70
2019-06-15T00:23:04.503Z,9.80
2019-06-15T00:25:34.301Z,9.53
2019-06-15T00:28:04.257Z,10.50
2019-06-15T00:30:34.061Z,9.50
2019-06-15T00:33:03.879Z,10.23
2019-06-15T00:35:33.703Z,10.83
2019-06-15T00:38:03.566Z,10.60
2019-06-15T00:40:33.422Z,10.20
2019-06-15T00:43:03.352Z,10.47
2019-06-15T00:45:33.138Z,10.23
2019-06-15T00:48:02.982Z,11.83
2019-06-15T00:50:32.765Z,10.87
2019-06-15T00:53:02.590Z,11.33
2019-06-15T00:55:32.385Z,10.30
2019-06-15T00:58:02.209Z,11.17
2019-06-15T01:00:32.084Z,11.43
2019-06-15T01:03:02.056Z,11.73
2019-06-15T01:05:31.888Z,11.87
2019-06-15T01:08:01.666Z,12.23
2019-06-15T01:10:31.463Z,11.20
2019-06-15T01:13:01.288Z,11.73
2019-06-15T01:15:31.152Z,12.67
2019-06-15T01:18:00.947Z,12.20
2019-06-15T01:20:30.904Z,11.80
2019-06-15T01:23:00.739Z,12.20
2019-06-15T01:25:30.603Z,12.17
2019-06-15T01:28:00.414Z,12.10
2019-06-15T01:30:30.268Z,12.47
2019-06-15T01:33:00.088Z,12.87
2019-06-15T01:35:29.908Z,12.63
2019-06-15T01:37:59.698Z,12.33
2019-06-15T01:40:29.512Z,12.50
2019-06-15T01:42:59.336Z,13.27
2019-06-15T01:45:29.214Z,12.50
2019-06-15T01:47:59.038Z,13.63
2019-06-15T01:50:28.844Z,11.80
2019-06-15T01:52:59.654Z,12.20
2019-06-15T01:55:29.496Z,12.57
2019-06-15T01:57:59.284Z,12.13
2019-06-15T02:00:31.751Z,12.50
2019-06-15T02:03:04.663Z,11.50
2019-06-15T02:05:34.524Z,12.97
2019-06-15T02:08:04.481Z,12.40
2019-06-15T02:10:34.706Z,12.43
2019-06-15T02:13:05.130Z,12.43
2019-06-15T02:15:34.919Z,13.60
2019-06-15T02:18:04.905Z,12.87
2019-06-15T02:20:34.713Z,12.77
2019-06-15T02:23:04.623Z,13.00
2019-06-15T02:25:36.412Z,11.13
2019-06-15T02:28:06.085Z,12.23
2019-06-15T02:30:36.458Z,12.60
2019-06-15T02:33:06.379Z,12.53
2019-06-15T02:35:36.189Z,12.03
2019-06-15T02:38:06.002Z,14.27
2019-06-15T02:40:35.867Z,12.40
2019-06-15T02:43:05.799Z,12.57
2019-06-15T02:45:35.642Z,13.40
2019-06-15T02:48:05.671Z,13.17
2019-06-15T02:50:35.468Z,12.43
2019-06-15T02:53:05.397Z,12.53
2019-06-15T02:55:47.302Z,12.60
2019-06-15T02:58:06.905Z,12.97
2019-06-15T03:00:55.038Z,13.43
2019-06-15T03:03:24.810Z,12.67
2019-06-15T03:05:54.604Z,13.13
2019-06-15T03:08:24.477Z,14.90
2019-06-15T03:10:54.390Z,14.87
2019-06-15T03:13:24.218Z,14.97
2019-06-15T03:15:54.068Z,16.00
2019-06-15T03:18:23.952Z,15.60
2019-06-15T03:20:53.974Z,15.53
2019-06-15T03:23:23.819Z,15.30
2019-06-15T03:26:05.144Z,15.57
2019-06-15T03:28:25.091Z,15.97
2019-06-15T03:30:54.944Z,16.27
2019-06-15T03:33:24.713Z,15.63
2019-06-15T03:35:54.571Z,16.00
2019-06-15T03:38:24.404Z,16.97
2019-06-15T03:40:54.242Z,16.70
2019-06-15T03:43:24.192Z,16.10
2019-06-15T03:45:54.000Z,16.93
2019-06-15T03:48:23.831Z,17.13
2019-06-15T03:50:53.643Z,16.23
2019-06-15T03:53:23.497Z,16.10
2019-06-15T03:55:53.292Z,15.97
2019-06-15T03:58:23.095Z,17.10
2019-06-15T04:01:21.614Z,16.13
2019-06-15T04:03:51.432Z,16.57
2019-06-15T04:06:21.232Z,16.43
2019-06-15T04:08:51.009Z,15.43
2019-06-15T04:11:20.839Z,16.07
2019-06-15T04:13:50.650Z,15.70
2019-06-15T04:16:20.488Z,15.50
2019-06-15T04:18:50.335Z,15.67
2019-06-15T04:21:20.240Z,16.07
2019-06-15T04:23:50.038Z,15.20
2019-06-15T04:26:19.932Z,15.17
2019-06-15T04:28:49.713Z,14.37
2019-06-15T04:31:19.544Z,14.87
2019-06-15T04:33:49.377Z,15.53
2019-06-15T04:36:19.210Z,15.10
2019-06-15T04:38:49.054Z,15.73
2019-06-15T04:41:18.907Z,15.17
2019-06-15T04:43:48.727Z,15.17
2019-06-15T04:46:18.957Z,15.20
2019-06-15T04:48:48.779Z,14.97
2019-06-15T04:51:18.600Z,15.90
2019-06-15T04:53:48.436Z,15.23
2019-06-15T04:56:18.253Z,15.30
2019-06-15T04:58:48.103Z,14.53
2019-06-15T05:01:17.978Z,15.93
2019-06-15T05:03:47.892Z,16.10
2019-06-15T05:06:17.690Z,15.40
2019-06-15T05:08:47.493Z,15.20
2019-06-15T05:11:17.332Z,16.40
2019-06-15T05:13:47.171Z,15.87
2019-06-15T05:16:16.972Z,14.90
2019-06-15T05:18:46.788Z,14.95
2019-06-15T05:21:16.572Z,15.07
2019-06-15T05:23:46.431Z,14.87
2019-06-15T05:26:16.294Z,14.17
2019-06-15T05:28:46.112Z,15.60
2019-06-15T05:31:15.969Z,14.87
2019-06-15T05:33:45.800Z,15.58
2019-06-15T05:36:15.597Z,15.38
2019-06-15T05:38:45.430Z,14.58
2019-06-15T05:41:15.866Z,14.25
2019-06-15T05:43:45.741Z,14.18
2019-06-15T05:46:15.556Z,14.77
2019-06-15T05:48:45.467Z,14.20
2019-06-15T05:51:15.330Z,14.98
2019-06-15T05:53:45.094Z,14.33
2019-06-15T05:56:14.911Z,14.87
2019-06-15T05:58:44.707Z,14.87
2019-06-15T06:01:14.488Z,14.15
2019-06-15T06:03:44.298Z,14.38
2019-06-15T06:06:14.161Z,13.78
2019-06-15T06:08:44.009Z,13.62
2019-06-15T06:11:13.791Z,14.23
2019-06-15T06:13:44.246Z,15.05
2019-06-15T06:16:14.097Z,14.63
2019-06-15T06:18:43.955Z,13.30
2019-06-15T06:21:13.752Z,13.32
2019-06-15T06:23:43.569Z,13.58
2019-06-15T06:26:13.470Z,14.20
2019-06-15T06:28:56.455Z,14.38
2019-06-15T06:31:14.787Z,13.95
2019-06-15T06:33:44.603Z,13.25
2019-06-15T06:36:14.455Z,13.30
2019-06-15T06:38:44.425Z,13.78
2019-06-15T06:41:14.266Z,14.03
2019-06-15T06:43:44.106Z,13.68
2019-06-15T06:46:13.916Z,13.80
2019-06-15T06:48:43.713Z,14.10
2019-06-15T06:51:13.734Z,14.18
2019-06-15T06:53:43.609Z,13.48
2019-06-15T06:56:13.473Z,14.45
2019-06-15T06:58:43.286Z,13.48
2019-06-15T07:01:13.152Z,13.15
2019-06-15T07:03:42.982Z,13.13
2019-06-15T07:06:12.990Z,14.07
2019-06-15T07:08:42.862Z,13.22
2019-06-15T07:11:12.680Z,13.80
2019-06-15T07:13:42.616Z,14.60
2019-06-15T07:16:12.391Z,13.75
2019-06-15T07:18:42.293Z,13.85
2019-06-15T07:21:12.090Z,14.13
2019-06-15T07:23:41.991Z,14.98
2019-06-15T07:26:11.778Z,13.68
2019-06-15T07:28:41.592Z,13.45
2019-06-15T07:31:11.507Z,13.72
2019-06-15T07:33:41.360Z,13.18
2019-06-15T07:36:11.181Z,13.45
2019-06-15T07:38:41.049Z,12.93
2019-06-15T07:41:10.913Z,13.70
2019-06-15T07:43:40.808Z,15.23
2019-06-15T07:46:10.703Z,13.60
2019-06-15T07:48:40.550Z,13.88
2019-06-15T07:51:10.315Z,13.32
2019-06-15T07:53:40.473Z,13.68
2019-06-15T07:56:10.279Z,12.40
2019-06-15T07:58:40.127Z,13.13
2019-06-15T08:01:09.920Z,12.95
2019-06-15T08:03:42.557Z,12.82
2019-06-15T08:06:11.218Z,12.25
2019-06-15T08:08:40.994Z,12.85
2019-06-15T08:11:10.802Z,14.15
2019-06-15T08:13:40.600Z,13.35
2019-06-15T08:16:10.441Z,14.63
2019-06-15T08:18:40.201Z,13.88
2019-06-15T08:21:10.096Z,14.60
2019-06-15T08:23:39.968Z,14.43
2019-06-15T08:26:09.834Z,14.18
2019-06-15T08:28:40.735Z,14.58
2019-06-15T08:31:10.839Z,14.60
2019-06-15T08:33:40.746Z,15.43
2019-06-15T08:36:10.674Z,16.20
2019-06-15T08:38:41.092Z,14.45
2019-06-15T08:41:10.890Z,15.88
2019-06-15T08:43:42.797Z,14.98
2019-06-15T08:46:12.658Z,16.12
2019-06-15T08:48:42.445Z,16.10
2019-06-15T08:51:12.267Z,15.50
2019-06-15T08:53:42.112Z,15.20
2019-06-15T08:56:11.979Z,15.38
2019-06-15T08:58:54.801Z,15.65
2019-06-15T09:01:13.251Z,16.05
2019-06-15T09:03:43.053Z,15.78
2019-06-15T09:06:12.865Z,14.80
2019-06-15T09:08:42.675Z,15.35
2019-06-15T09:11:12.596Z,15.80
2019-06-15T09:13:42.471Z,15.75
2019-06-15T09:16:12.369Z,16.05
2019-06-15T09:18:42.221Z,15.35
2019-06-15T09:21:12.027Z,16.82
2019-06-15T09:23:41.877Z,15.80
2019-06-15T09:26:11.774Z,15.25
2019-06-15T09:28:41.616Z,16.02
2019-06-15T09:31:11.562Z,15.68
2019-06-15T09:33:41.466Z,15.45
2019-06-15T09:36:11.554Z,15.75
2019-06-15T09:38:41.391Z,15.95
2019-06-15T09:41:11.406Z,15.63
2019-06-15T09:43:46.345Z,15.48
2019-06-15T09:46:16.137Z,15.45
2019-06-15T09:48:45.946Z,16.45
2019-06-15T09:51:15.792Z,15.13
2019-06-15T09:53:45.608Z,16.07
2019-06-15T09:56:19.346Z,15.35
2019-06-15T09:59:07.567Z,16.25
2019-06-15T10:01:34.331Z,15.70
2019-06-15T10:04:04.354Z,15.68
2019-06-15T10:06:38.507Z,17.40
2019-06-15T10:09:08.439Z,14.90
2019-06-15T10:11:38.832Z,15.32
2019-06-15T10:14:09.721Z,16.55
2019-06-15T10:16:40.865Z,17.42
2019-06-15T10:19:12.619Z,17.00
2019-06-15T10:21:43.513Z,16.82
2019-06-15T10:24:14.028Z,16.93
2019-06-15T10:26:45.042Z,16.90
2019-06-15T10:29:16.098Z,16.30
2019-06-15T10:31:46.875Z,16.32
2019-06-15T10:34:17.888Z,16.42
2019-06-15T10:36:48.709Z,14.65
2019-06-15T10:39:19.123Z,15.10
2019-06-15T10:41:49.922Z,14.58
2019-06-15T10:44:21.345Z,15.45
2019-06-15T10:46:52.134Z,16.45
2019-06-15T10:49:22.628Z,16.65
2019-06-15T10:51:53.348Z,15.40
2019-06-15T10:54:23.238Z,16.10
2019-06-15T10:57:01.305Z,14.85
2019-06-15T10:59:31.437Z,13.65
2019-06-15T11:02:01.492Z,13.85
2019-06-15T11:04:33.271Z,13.98
2019-06-15T11:07:03.982Z,14.40
2019-06-15T11:09:35.074Z,14.40
2019-06-15T11:12:06.576Z,15.23
2019-06-15T11:14:46.561Z,13.85
2019-06-15T11:17:16.705Z,12.35
2019-06-15T11:19:46.527Z,12.45
2019-06-15T11:22:16.317Z,13.72
2019-06-15T11:24:46.139Z,12.80
2019-06-15T11:27:18.746Z,12.43
2019-06-15T11:29:49.223Z,11.57
2019-06-15T11:32:20.178Z,12.90
2019-06-15T11:34:50.953Z,13.55
2019-06-15T11:37:20.735Z,14.28
2019-06-15T11:39:50.663Z,13.58
2019-06-15T11:42:20.473Z,15.10
2019-06-15T11:44:50.540Z,13.55
2019-06-15T11:47:20.458Z,11.93
2019-06-15T11:49:50.316Z,11.22
2019-06-15T11:52:21.034Z,11.75
2019-06-15T11:54:51.754Z,9.38
2019-06-15T11:57:21.579Z,9.80
2019-06-15T11:59:51.448Z,9.50
2019-06-15T12:02:23.490Z,9.58
2019-06-15T12:04:58.406Z,9.93
2019-06-15T12:07:25.536Z,10.00
2019-06-15T12:09:55.737Z,10.32
2019-06-15T12:12:25.581Z,9.85
2019-06-15T12:14:55.555Z,9.78
2019-06-15T12:17:32.240Z,10.38
2019-06-15T12:20:30.053Z,9.68
2019-06-15T12:23:01.928Z,10.18
2019-06-15T12:25:35.674Z,9.95
2019-06-15T12:28:07.645Z,10.65
2019-06-15T12:30:47.929Z,10.38
2019-06-15T12:33:18.649Z,10.13
2019-06-15T12:35:50.713Z,9.40
2019-06-15T12:38:20.647Z,9.70
2019-06-15T12:40:50.510Z,9.98
2019-06-15T12:43:20.403Z,9.18
2019-06-15T12:45:50.279Z,8.30
2019-06-15T12:48:20.615Z,8.80
2019-06-15T12:50:50.408Z,7.35
2019-06-15T12:53:25.104Z,7.97
2019-06-15T12:55:55.877Z,7.20
2019-06-15T12:58:25.804Z,7.05
2019-06-15T13:01:03.049Z,6.00
2019-06-15T13:03:29.281Z,5.65
2019-06-15T13:05:59.289Z,5.40
2019-06-15T13:08:29.240Z,5.22
2019-06-15T13:11:01.156Z,5.92
2019-06-15T13:13:32.355Z,5.67
2019-06-15T13:16:02.208Z,6.10
2019-06-15T13:18:32.333Z,6.20
2019-06-15T13:21:02.623Z,5.37
2019-06-15T13:23:32.468Z,5.50
2019-06-15T13:26:02.311Z,4.92
2019-06-15T13:28:32.434Z,5.03
2019-06-15T13:31:17.308Z,5.30
2019-06-15T13:33:36.339Z,5.40
2019-06-15T13:36:07.127Z,5.03
2019-06-15T13:38:38.257Z,4.97
2019-06-15T13:41:08.399Z,4.92
2019-06-15T13:43:38.854Z,5.15
2019-06-15T13:46:08.880Z,4.80
2019-06-15T13:48:39.114Z,4.83
2019-06-15T13:51:08.947Z,5.72
2019-06-15T13:53:38.975Z,5.15
2019-06-15T13:56:09.101Z,5.15
2019-06-15T13:58:39.165Z,5.25
2019-06-15T14:01:09.184Z,5.17
2019-06-15T14:03:39.064Z,5.53
2019-06-15T14:06:09.529Z,5.60
2019-06-15T14:08:39.897Z,5.55
2019-06-15T14:11:11.300Z,5.53
2019-06-15T14:13:42.501Z,6.22
2019-06-15T14:16:12.540Z,5.53
2019-06-15T14:18:42.563Z,5.92
2019-06-15T14:21:37.911Z,6.17
2019-06-15T14:24:23.893Z,5.30
2019-06-15T14:26:53.702Z,5.90
2019-06-15T14:29:33.243Z,4.80
2019-06-15T14:32:10.154Z,5.12
2019-06-15T14:34:43.310Z,4.50
2019-06-15T14:37:14.528Z,5.50
2019-06-15T14:39:44.509Z,5.12
2019-06-15T14:42:14.995Z,5.47
2019-06-15T14:44:45.638Z,5.03
2019-06-15T14:47:17.498Z,5.40
2019-06-15T14:49:49.748Z,5.20
2019-06-15T14:52:19.607Z,5.42
2019-06-15T14:54:49.419Z,5.42
2019-06-15T14:57:20.946Z,6.70
2019-06-15T15:00:00.584Z,6.50
2019-06-15T15:02:26.264Z,7.65
2019-06-15T15:04:56.489Z,7.20
2019-06-15T15:07:27.577Z,6.35
2019-06-15T15:09:59.459Z,6.67
2019-06-15T15:12:29.513Z,7.22
2019-06-15T15:15:00.096Z,7.45
2019-06-15T15:17:30.066Z,6.75
2019-06-15T15:20:03.787Z,6.80
2019-06-15T15:22:32.622Z,6.37
2019-06-15T15:25:02.740Z,5.75
2019-06-15T15:27:32.583Z,6.15
2019-06-15T15:30:06.097Z,5.67
2019-06-15T15:32:36.985Z,5.78
2019-06-15T15:35:07.960Z,5.97
2019-06-15T15:37:37.800Z,5.83
2019-06-15T15:40:08.056Z,5.87
2019-06-15T15:42:38.216Z,5.70
2019-06-15T15:45:08.535Z,5.85
2019-06-15T15:47:38.302Z,6.05
2019-06-15T15:50:08.891Z,6.08
2019-06-15T15:52:39.004Z,6.20
2019-06-15T15:55:09.551Z,5.70
2019-06-15T15:57:39.645Z,5.42
2019-06-15T16:00:10.207Z,5.87
2019-06-15T16:02:51.954Z,5.60
2019-06-15T16:05:11.652Z,5.53
2019-06-15T16:07:41.448Z,6.53
2019-06-15T16:10:12.475Z,6.40
2019-06-15T16:12:42.302Z,11.57
2019-06-15T16:15:12.264Z,12.73
2019-06-15T16:17:42.117Z,5.90
2019-06-15T16:20:17.562Z,7.65
2019-06-15T16:22:48.192Z,5.80
2019-06-15T16:25:18.362Z,5.67
2019-06-15T16:27:48.288Z,5.67
2019-06-15T16:31:01.952Z,5.55
2019-06-15T16:33:11.712Z,6.25
2019-06-15T16:35:41.512Z,5.72
2019-06-15T16:38:15.174Z,5.40
2019-06-15T16:40:43.821Z,4.85
2019-06-15T16:43:13.611Z,4.92
2019-06-15T16:45:43.396Z,5.05
2019-06-15T16:48:13.155Z,4.90
2019-06-15T16:50:43.071Z,4.83
2019-06-15T16:53:12.899Z,4.58
2019-06-15T16:55:42.683Z,4.20
2019-06-15T16:58:12.608Z,3.95
2019-06-15T17:00:43.007Z,4.45
2019-06-15T17:03:21.922Z,4.70
2019-06-15T17:05:46.415Z,4.37
2019-06-15T17:08:17.243Z,4.83
2019-06-15T17:10:47.264Z,4.72
2019-06-15T17:13:17.110Z,5.12
2019-06-15T17:15:47.018Z,4.10
2019-06-15T17:18:16.980Z,4.87
2019-06-15T17:20:51.972Z,4.55
2019-06-15T17:23:22.419Z,4.12
2019-06-15T17:25:52.329Z,4.40
2019-06-15T17:28:22.277Z,3.77
2019-06-15T17:30:52.070Z,3.83
2019-06-15T17:33:34.277Z,3.20
2019-06-15T17:35:59.855Z,3.22
2019-06-15T17:38:27.347Z,3.22
2019-06-15T17:40:57.435Z,3.45
2019-06-15T17:43:27.278Z,4.65
2019-06-15T17:45:57.102Z,3.70
2019-06-15T17:48:27.282Z,3.30
2019-06-15T17:50:57.365Z,3.50
2019-06-15T17:53:27.399Z,3.47
2019-06-15T17:55:57.167Z,4.08
2019-06-15T17:58:27.220Z,4.12
2019-06-15T18:00:57.639Z,3.25
2019-06-15T18:03:27.625Z,3.27
2019-06-15T18:05:58.305Z,3.62
2019-06-15T18:08:28.608Z,3.83
2019-06-15T18:10:58.445Z,3.47
2019-06-15T18:13:28.333Z,3.30
2019-06-15T18:15:58.184Z,3.65
2019-06-15T18:18:28.102Z,3.45
2019-06-15T18:20:59.037Z,3.20
2019-06-15T18:23:28.849Z,3.87
2019-06-15T18:25:58.806Z,3.25
2019-06-15T18:28:28.629Z,4.00
2019-06-15T18:30:58.508Z,3.60
2019-06-15T18:33:28.352Z,4.47
2019-06-15T18:35:58.408Z,3.90
2019-06-15T18:38:28.233Z,3.93
2019-06-15T18:40:58.052Z,3.37
2019-06-15T18:43:27.857Z,3.90
2019-06-15T18:45:57.671Z,3.30
2019-06-15T18:48:27.561Z,3.43
2019-06-15T18:50:57.331Z,3.03
2019-06-15T18:53:27.317Z,3.53
2019-06-15T18:55:57.457Z,3.40
2019-06-15T18:58:27.290Z,4.15
2019-06-15T19:00:57.153Z,3.73
2019-06-15T19:03:26.967Z,4.37
2019-06-15T19:05:57.093Z,4.07
2019-06-15T19:08:27.003Z,3.37
2019-06-15T19:10:56.967Z,3.93
2019-06-15T19:13:28.088Z,3.17
2019-06-15T19:15:57.975Z,3.77
2019-06-15T19:18:27.947Z,3.93
2019-06-15T19:21:06.807Z,3.60
2019-06-15T19:23:36.264Z,3.83
2019-06-15T19:26:06.444Z,3.50
2019-06-15T19:28:37.609Z,3.87
2019-06-15T19:31:07.407Z,4.03
2019-06-15T19:33:37.828Z,3.90
2019-06-15T19:36:07.637Z,3.70
2019-06-15T19:38:37.447Z,3.37
2019-06-15T19:41:07.325Z,3.73
2019-06-15T19:43:37.360Z,4.10
2019-06-15T19:46:07.178Z,4.17
2019-06-15T19:48:37.178Z,3.93
2019-06-15T19:51:10.049Z,3.83
2019-06-15T19:53:41.964Z,3.83
2019-06-15T19:56:11.768Z,4.60
2019-06-15T19:58:41.561Z,4.20
2019-06-15T20:01:11.360Z,3.53
2019-06-15T20:03:41.139Z,4.07
2019-06-15T20:06:10.962Z,3.80
2019-06-15T20:08:40.768Z,3.67
2019-06-15T20:11:10.560Z,4.70
2019-06-15T20:13:40.380Z,4.10
2019-06-15T20:16:10.214Z,4.40
2019-06-15T20:18:40.042Z,4.33
2019-06-15T20:21:09.910Z,5.10
2019-06-15T20:23:39.726Z,3.83
2019-06-15T20:26:09.565Z,4.17
2019-06-15T20:28:39.773Z,4.60
2019-06-15T20:31:09.640Z,4.20
2019-06-15T20:33:39.460Z,4.67
2019-06-15T20:36:09.368Z,4.43
2019-06-15T20:38:39.588Z,4.50
2019-06-15T20:41:09.865Z,4.33
2019-06-15T20:43:39.687Z,4.00
2019-06-15T20:46:10.585Z,4.60
2019-06-15T20:48:40.424Z,4.17
2019-06-15T20:51:10.505Z,4.30
2019-06-15T20:53:40.303Z,4.13
2019-06-15T20:56:11.346Z,3.73
2019-06-15T20:58:41.214Z,4.10
2019-06-15T21:01:11.107Z,3.87
2019-06-15T21:03:43.099Z,3.47
2019-06-15T21:06:12.378Z,3.37
2019-06-15T21:08:42.255Z,3.17
2019-06-15T21:11:12.079Z,3.40
2019-06-15T21:13:41.869Z,3.87
2019-06-15T21:16:11.729Z,3.20
2019-06-15T21:18:41.580Z,2.93
2019-06-15T21:21:11.816Z,3.50
2019-06-15T21:23:41.770Z,2.60
2019-06-15T21:26:11.690Z,3.10
2019-06-15T21:28:41.525Z,2.57
2019-06-15T21:31:11.373Z,2.93
2019-06-15T21:33:41.203Z,2.40
2019-06-15T21:36:11.122Z,3.13
2019-06-15T21:38:41.334Z,2.37
2019-06-15T21:41:11.172Z,2.40
2019-06-15T21:43:40.956Z,2.57
2019-06-15T21:46:10.794Z,2.10
2019-06-15T21:48:40.569Z,2.40
2019-06-15T21:51:10.388Z,1.80
2019-06-15T21:53:40.199Z,2.30
2019-06-15T21:56:10.114Z,2.10
2019-06-15T21:58:40.051Z,1.93
2019-06-15T22:01:20.106Z,2.00
2019-06-15T22:03:49.915Z,2.07
2019-06-15T22:06:19.802Z,1.80
2019-06-15T22:08:49.564Z,1.60
2019-06-15T22:11:19.374Z,1.07
2019-06-15T22:13:49.193Z,1.23
2019-06-15T22:16:18.977Z,1.27
2019-06-15T22:18:48.761Z,1.10
2019-06-15T22:21:18.615Z,1.00
2019-06-15T22:23:48.404Z,0.90
2019-06-15T22:26:18.712Z,1.10
2019-06-15T22:28:48.440Z,0.90
2019-06-15T22:31:18.326Z,1.10
2019-06-15T22:33:48.071Z,1.30
2019-06-15T22:36:24.860Z,1.07
2019-06-15T22:38:49.335Z,0.80
2019-06-15T22:41:19.121Z,0.77
2019-06-15T22:43:49.005Z,1.03
2019-06-15T22:46:18.786Z,1.03
2019-06-15T22:48:48.578Z,0.80
2019-06-15T22:51:18.344Z,0.80
2019-06-15T22:53:48.156Z,0.70
2019-06-15T22:56:18.040Z,0.80
2019-06-15T22:58:47.853Z,1.10
2019-06-15T23:01:17.640Z,0.93
2019-06-15T23:03:47.435Z,1.10
2019-06-15T23:06:17.287Z,0.90
2019-06-15T23:08:47.482Z,2.27
2019-06-15T23:11:17.642Z,1.13
2019-06-15T23:13:47.548Z,0.90
2019-06-15T23:16:17.335Z,0.80
2019-06-15T23:18:47.159Z,1.00
2019-06-15T23:21:17.455Z,1.40
2019-06-15T23:23:47.439Z,0.77
2019-06-15T23:26:17.216Z,0.90
2019-06-15T23:28:47.079Z,0.80
2019-06-15T23:31:16.948Z,1.00
2019-06-15T23:33:47.048Z,1.07
2019-06-15T23:36:26.726Z,1.10
2019-06-15T23:38:57.092Z,1.10
2019-06-15T23:41:27.309Z,1.30
2019-06-15T23:43:57.397Z,1.37
2019-06-15T23:46:27.366Z,1.47
2019-06-15T23:48:57.249Z,1.43
2019-06-15T23:51:27.082Z,2.03
2019-06-15T23:53:57.284Z,2.20
2019-06-15T23:56:27.131Z,2.20
2019-06-15T23:58:56.909Z,3.23
